createdAt,value
2019-05-15T00:01:19.282Z,81.00
2019-05-15T00:03:49.316Z,81.70
2019-05-15T00:06:18.860Z,81.60
2019-05-15T00:08:58.885Z,81.70
2019-05-15T00:11:25.966Z,81.70
2019-05-15T00:13:52.915Z,81.70
2019-05-15T00:16:19.845Z,81.80
2019-05-15T00:18:59.383Z,81.80
2019-05-15T00:21:26.100Z,81.90
2019-05-15T00:23:53.065Z,81.70
2019-05-15T00:35:44.648Z,81.40
2019-05-15T00:38:11.671Z,82.00
2019-05-15T00:40:39.301Z,82.30
2019-05-15T00:43:08.620Z,82.50
2019-05-15T00:45:35.231Z,82.50
2019-05-15T00:48:11.224Z,82.70
2019-05-15T00:50:39.278Z,82.30
2019-05-15T00:53:28.454Z,81.90
2019-05-15T00:55:55.462Z,82.00
2019-05-15T00:58:22.395Z,81.80
2019-05-15T01:00:49.355Z,82.10
2019-05-15T01:03:18.087Z,82.20
2019-05-15T01:05:45.078Z,82.00
2019-05-15T01:08:12.038Z,82.10
2019-05-15T01:10:39.055Z,82.10
2019-05-15T01:13:19.268Z,81.90
2019-05-15T01:15:46.261Z,82.60
2019-05-15T01:18:13.244Z,82.70
2019-05-15T01:20:41.438Z,82.40
2019-05-15T01:23:08.930Z,82.20
2019-05-15T01:25:38.652Z,81.90
2019-05-15T01:28:04.998Z,82.20
2019-05-15T01:30:33.064Z,82.10
2019-05-15T01:33:00.017Z,82.00
2019-05-15T01:35:28.702Z,81.50
2019-05-15T01:37:55.818Z,81.40
2019-05-15T01:40:38.236Z,81.30
2019-05-15T01:43:04.476Z,81.40
2019-05-15T01:45:31.468Z,81.30
2019-05-15T01:47:58.675Z,80.70
2019-05-15T01:50:25.841Z,80.80
2019-05-15T01:52:52.773Z,80.90
2019-05-15T01:55:19.737Z,80.20
2019-05-15T01:57:48.609Z,80.50
2019-05-15T02:00:15.466Z,80.90
2019-05-15T02:02:42.393Z,80.90
2019-05-15T02:05:09.347Z,80.20
2019-05-15T02:07:38.750Z,79.70
2019-05-15T02:10:06.156Z,79.20
2019-05-15T02:12:33.099Z,81.80
2019-05-15T02:15:00.055Z,79.30
2019-05-15T02:17:28.288Z,78.90
2019-05-15T02:19:55.385Z,78.20
2019-05-15T02:22:22.350Z,78.80
2019-05-15T02:24:49.378Z,79.00
2019-05-15T02:27:18.551Z,79.00
2019-05-15T02:29:46.057Z,79.00
2019-05-15T02:32:13.001Z,79.20
2019-05-15T02:34:40.027Z,78.60
2019-05-15T02:37:08.977Z,78.80
2019-05-15T02:39:38.608Z,78.20
2019-05-15T02:42:04.466Z,77.60
2019-05-15T02:44:31.429Z,77.30
2019-05-15T02:47:11.403Z,77.90
2019-05-15T02:49:39.578Z,78.10
2019-05-15T02:52:09.793Z,78.20
2019-05-15T02:54:35.830Z,77.90
2019-05-15T02:57:03.874Z,76.90
2019-05-15T02:59:30.818Z,73.70
2019-05-15T03:01:59.417Z,76.20
2019-05-15T03:04:29.142Z,75.70
2019-05-15T03:06:55.291Z,74.00
2019-05-15T03:09:22.234Z,75.10
2019-05-15T03:11:49.734Z,76.00
2019-05-15T03:14:16.958Z,74.30
2019-05-15T03:16:43.901Z,74.20
2019-05-15T03:19:10.893Z,74.80
2019-05-15T03:21:38.834Z,75.00
2019-05-15T03:24:06.196Z,74.30
2019-05-15T03:26:33.166Z,73.20
2019-05-15T03:29:00.201Z,72.00
2019-05-15T03:31:43.322Z,71.50
2019-05-15T03:34:02.049Z,69.50
2019-05-15T03:36:24.841Z,69.70
2019-05-15T03:38:52.098Z,68.90
2019-05-15T03:41:19.649Z,69.80
2019-05-15T03:43:49.617Z,68.50
2019-05-15T03:46:15.523Z,69.10
2019-05-15T03:48:42.497Z,70.00
2019-05-15T03:51:09.560Z,69.50
2019-05-15T03:53:39.528Z,69.90
2019-05-15T03:56:05.266Z,68.50
2019-05-15T03:58:32.277Z,66.90
2019-05-15T04:01:00.200Z,67.20
2019-05-15T04:03:30.017Z,66.70
2019-05-15T04:06:00.240Z,66.70
2019-05-15T04:08:25.242Z,64.90
2019-05-15T04:10:52.183Z,65.10
2019-05-15T04:13:19.778Z,61.80
2019-05-15T04:15:50.039Z,61.00
2019-05-15T04:18:15.846Z,62.60
2019-05-15T04:20:42.812Z,60.40
2019-05-15T04:23:10.886Z,60.30
2019-05-15T04:25:39.106Z,60.20
2019-05-15T04:28:09.508Z,60.40
2019-05-15T04:30:38.939Z,57.50
2019-05-15T04:33:04.442Z,59.10
2019-05-15T04:35:31.413Z,58.00
2019-05-15T04:38:19.540Z,58.40
2019-05-15T04:40:49.841Z,58.10
2019-05-15T04:43:15.606Z,57.10
2019-05-15T04:45:42.563Z,55.30
2019-05-15T04:48:10.361Z,54.80
2019-05-15T04:50:39.933Z,54.60
2019-05-15T04:53:10.020Z,54.00
2019-05-15T04:55:35.022Z,54.60
2019-05-15T04:58:03.105Z,53.70
2019-05-15T05:00:51.690Z,54.40
2019-05-15T05:03:19.996Z,55.90
2019-05-15T05:05:49.846Z,53.20
2019-05-15T05:08:20.083Z,54.30
2019-05-15T05:10:48.866Z,53.40
2019-05-15T05:13:19.391Z,52.50
2019-05-15T05:15:44.737Z,53.60
2019-05-15T05:18:11.677Z,53.50
2019-05-15T05:20:38.664Z,52.60
2019-05-15T05:23:05.565Z,53.00
2019-05-15T05:25:32.528Z,54.60
2019-05-15T05:28:12.407Z,53.40
2019-05-15T05:30:39.404Z,54.60
2019-05-15T05:33:08.504Z,53.10
2019-05-15T05:35:35.721Z,53.30
2019-05-15T05:38:02.670Z,53.60
2019-05-15T05:40:29.641Z,53.50
2019-05-15T05:42:56.589Z,53.60
2019-05-15T05:45:23.542Z,53.90
2019-05-15T05:47:50.515Z,53.50
2019-05-15T05:50:34.982Z,51.60
2019-05-15T05:53:01.929Z,55.40
2019-05-15T05:55:28.859Z,53.70
2019-05-15T05:57:58.289Z,51.20
2019-05-15T06:00:28.626Z,51.60
2019-05-15T06:02:56.010Z,54.10
2019-05-15T06:05:22.934Z,50.80
2019-05-15T06:07:49.925Z,49.10
2019-05-15T06:10:18.276Z,51.30
2019-05-15T06:12:45.428Z,53.20
2019-05-15T06:15:12.369Z,50.50
2019-05-15T06:17:39.571Z,56.00
2019-05-15T06:20:08.098Z,53.40
2019-05-15T06:22:35.226Z,50.90
2019-05-15T06:25:05.058Z,48.00
2019-05-15T06:27:31.251Z,47.10
2019-05-15T06:29:58.209Z,51.00
2019-05-15T06:32:25.154Z,54.90
2019-05-15T06:34:52.130Z,49.60
2019-05-15T06:37:19.622Z,55.20
2019-05-15T06:39:48.121Z,52.00
2019-05-15T06:42:18.605Z,49.20
2019-05-15T06:44:44.926Z,51.40
2019-05-15T06:47:11.854Z,50.40
2019-05-15T06:49:38.813Z,49.90
2019-05-15T06:52:05.749Z,48.30
2019-05-15T06:54:32.730Z,48.20
2019-05-15T06:56:59.674Z,48.00
2019-05-15T06:59:28.722Z,46.60
2019-05-15T07:01:55.706Z,50.50
2019-05-15T07:04:22.757Z,49.20
2019-05-15T07:07:11.248Z,47.70
2019-05-15T07:09:39.703Z,46.30
2019-05-15T07:12:08.522Z,45.50
2019-05-15T07:14:37.835Z,44.40
2019-05-15T07:17:04.257Z,44.10
2019-05-15T07:19:31.407Z,42.50
2019-05-15T07:21:58.707Z,44.00
2019-05-15T07:24:25.662Z,45.00
2019-05-15T07:26:52.974Z,43.10
2019-05-15T07:29:20.072Z,43.90
2019-05-15T07:31:47.815Z,43.20
2019-05-15T07:34:15.162Z,44.80
2019-05-15T07:36:42.153Z,44.70
2019-05-15T07:39:09.108Z,43.70
2019-05-15T07:41:36.085Z,41.90
2019-05-15T07:44:03.681Z,44.90
2019-05-15T07:46:30.661Z,43.90
2019-05-15T07:48:58.286Z,42.90
2019-05-15T07:51:25.644Z,44.00
2019-05-15T07:53:52.673Z,43.60
2019-05-15T07:56:20.829Z,43.70
2019-05-15T07:58:52.372Z,43.30
2019-05-15T08:01:18.566Z,43.00
2019-05-15T08:03:56.560Z,43.10
2019-05-15T08:06:14.793Z,43.20
2019-05-15T08:08:41.869Z,41.70
2019-05-15T08:11:20.371Z,43.70
2019-05-15T08:13:38.295Z,41.80
2019-05-15T08:16:05.621Z,42.70
2019-05-15T08:18:32.549Z,43.10
2019-05-15T08:20:59.521Z,41.00
2019-05-15T08:23:28.381Z,42.40
2019-05-15T08:25:55.225Z,41.60
2019-05-15T08:28:22.148Z,40.80
2019-05-15T08:30:49.861Z,43.80
2019-05-15T08:33:17.832Z,41.00
2019-05-15T08:35:48.795Z,42.10
2019-05-15T08:38:17.985Z,42.60
2019-05-15T08:40:44.442Z,43.60
2019-05-15T08:43:11.704Z,41.60
2019-05-15T08:45:39.218Z,41.70
2019-05-15T08:48:09.180Z,42.80
2019-05-15T08:50:35.801Z,41.60
2019-05-15T08:53:02.640Z,41.90
2019-05-15T08:55:29.502Z,41.70
2019-05-15T08:58:05.619Z,41.90
2019-05-15T09:00:26.098Z,41.60
2019-05-15T09:02:52.952Z,41.40
2019-05-15T09:05:19.876Z,41.70
2019-05-15T09:07:48.618Z,41.60
2019-05-15T09:10:18.201Z,42.20
2019-05-15T09:12:44.940Z,41.80
2019-05-15T09:15:13.760Z,42.20
2019-05-15T09:17:40.683Z,43.10
2019-05-15T09:20:08.114Z,42.30
2019-05-15T09:22:35.275Z,42.10
2019-05-15T09:25:02.438Z,41.00
2019-05-15T09:27:29.550Z,38.20
2019-05-15T09:29:59.019Z,42.70
2019-05-15T09:32:25.057Z,42.60
2019-05-15T09:34:55.344Z,43.30
2019-05-15T09:37:20.665Z,42.20
2019-05-15T09:39:49.085Z,41.50
2019-05-15T09:42:18.033Z,43.20
2019-05-15T09:44:45.100Z,40.90
2019-05-15T09:47:12.070Z,41.50
2019-05-15T09:49:51.778Z,41.70
2019-05-15T09:52:22.704Z,43.20
2019-05-15T09:54:49.189Z,39.90
2019-05-15T09:57:18.770Z,40.40
2019-05-15T09:59:45.523Z,39.80
2019-05-15T10:02:13.690Z,39.80
2019-05-15T10:04:42.811Z,40.90
2019-05-15T10:07:13.980Z,40.60
2019-05-15T10:09:41.248Z,40.70
2019-05-15T10:12:09.263Z,39.00
2019-05-15T10:14:38.598Z,40.90
2019-05-15T10:17:32.104Z,42.00
2019-05-15T10:20:09.173Z,39.50
2019-05-15T10:22:37.057Z,42.60
2019-05-15T10:25:08.504Z,43.40
2019-05-15T10:27:35.684Z,42.40
2019-05-15T10:30:04.782Z,41.30
2019-05-15T10:32:33.395Z,41.70
2019-05-15T10:35:00.498Z,40.10
2019-05-15T10:37:28.554Z,40.30
2019-05-15T10:39:58.265Z,39.70
2019-05-15T10:42:24.682Z,42.30
2019-05-15T10:44:53.507Z,42.80
2019-05-15T10:47:21.428Z,42.60
2019-05-15T10:50:02.101Z,43.40
2019-05-15T10:52:29.064Z,38.50
2019-05-15T10:54:58.065Z,40.80
2019-05-15T10:57:24.515Z,38.60
2019-05-15T10:59:51.488Z,42.90
2019-05-15T11:02:19.369Z,42.10
2019-05-15T11:04:48.590Z,42.20
2019-05-15T11:07:19.242Z,41.80
2019-05-15T11:09:45.003Z,38.90
2019-05-15T11:12:12.094Z,38.60
2019-05-15T11:14:39.125Z,37.90
2019-05-15T11:17:18.664Z,40.50
2019-05-15T11:19:49.518Z,42.20
2019-05-15T11:22:15.615Z,39.60
2019-05-15T11:24:42.634Z,42.80
2019-05-15T11:27:10.131Z,39.20
2019-05-15T11:29:38.174Z,40.90
2019-05-15T11:32:05.365Z,43.00
2019-05-15T11:34:32.146Z,39.80
2019-05-15T11:36:59.438Z,39.40
2019-05-15T11:39:28.835Z,40.10
2019-05-15T11:41:55.771Z,43.50
2019-05-15T11:44:22.670Z,42.70
2019-05-15T11:46:49.887Z,43.50
2019-05-15T11:49:18.300Z,39.90
2019-05-15T11:51:45.396Z,43.10
2019-05-15T11:54:12.239Z,43.00
2019-05-15T11:56:39.422Z,40.20
2019-05-15T11:59:08.399Z,41.30
2019-05-15T12:01:35.151Z,42.80
2019-05-15T12:04:01.997Z,40.60
2019-05-15T12:06:29.333Z,40.60
2019-05-15T12:08:58.768Z,41.90
2019-05-15T12:11:46.944Z,41.30
2019-05-15T12:14:13.795Z,39.40
2019-05-15T12:16:40.701Z,40.40
2019-05-15T12:19:09.624Z,42.00
2019-05-15T12:21:39.355Z,38.80
2019-05-15T12:24:04.975Z,42.00
2019-05-15T12:26:31.986Z,41.70
2019-05-15T12:28:59.165Z,40.40
2019-05-15T12:31:26.614Z,40.40
2019-05-15T12:33:53.524Z,43.40
2019-05-15T12:36:45.455Z,42.30
2019-05-15T12:38:50.343Z,39.10
2019-05-15T13:01:16.959Z,38.00
2019-05-15T13:03:38.179Z,41.90
2019-05-15T13:06:04.827Z,41.70
2019-05-15T13:08:31.669Z,41.90
2019-05-15T13:10:58.576Z,40.80
2019-05-15T13:13:25.523Z,40.70
2019-05-15T13:15:52.447Z,41.40
2019-05-15T13:18:19.488Z,42.20
2019-05-15T13:20:48.804Z,41.80
2019-05-15T13:23:16.055Z,41.00
2019-05-15T13:25:42.982Z,40.10
2019-05-15T13:28:09.824Z,40.80
2019-05-15T13:30:40.837Z,40.90
2019-05-15T13:33:05.496Z,41.00
2019-05-15T13:35:32.443Z,40.50
2019-05-15T13:37:59.304Z,42.10
2019-05-15T13:40:36.883Z,41.00
2019-05-15T13:42:54.865Z,41.20
2019-05-15T13:45:21.799Z,42.00
2019-05-15T13:47:48.738Z,41.20
2019-05-15T13:50:19.338Z,41.70
2019-05-15T13:52:44.971Z,40.40
2019-05-15T13:55:11.803Z,41.50
2019-05-15T13:57:38.842Z,40.70
2019-05-15T14:00:08.935Z,39.50
2019-05-15T14:02:38.937Z,41.90
2019-05-15T14:05:09.435Z,40.90
2019-05-15T14:07:48.610Z,43.00
2019-05-15T14:10:09.407Z,43.60
2019-05-15T14:12:50.471Z,40.90
2019-05-15T14:15:20.449Z,40.30
2019-05-15T14:17:49.801Z,44.00
2019-05-15T14:20:18.145Z,42.40
2019-05-15T14:22:48.415Z,41.40
2019-05-15T14:25:18.092Z,42.50
2019-05-15T14:27:48.401Z,42.50
2019-05-15T14:30:18.044Z,43.00
2019-05-15T14:32:48.254Z,42.70
2019-05-15T14:35:18.029Z,42.70
2019-05-15T14:38:01.844Z,41.90
2019-05-15T14:40:20.532Z,44.60
2019-05-15T14:42:48.543Z,42.10
2019-05-15T14:45:28.498Z,43.80
2019-05-15T14:47:58.270Z,43.40
2019-05-15T14:50:47.602Z,45.40
2019-05-15T14:53:14.993Z,43.20
2019-05-15T14:55:44.305Z,42.70
2019-05-15T14:58:13.246Z,43.10
2019-05-15T15:00:49.716Z,43.00
2019-05-15T15:03:18.340Z,43.40
2019-05-15T15:05:49.216Z,43.10
2019-05-15T15:08:24.600Z,43.90
2019-05-15T15:10:55.176Z,42.30
2019-05-15T15:13:23.781Z,44.60
2019-05-15T15:15:52.369Z,46.30
2019-05-15T15:18:19.871Z,43.10
2019-05-15T15:20:48.739Z,43.10
2019-05-15T15:23:16.331Z,43.20
2019-05-15T15:25:43.561Z,43.30
2019-05-15T15:28:11.202Z,42.20
2019-05-15T15:30:42.546Z,42.60
2019-05-15T15:33:12.507Z,44.70
2019-05-15T15:35:41.811Z,43.60
2019-05-15T15:38:13.034Z,42.60
2019-05-15T15:40:40.570Z,42.90
2019-05-15T15:43:12.000Z,43.30
2019-05-15T15:48:52.666Z,45.00
2019-05-15T15:51:23.684Z,45.90
2019-05-15T15:53:51.056Z,44.00
2019-05-15T15:56:19.279Z,43.80
2019-05-15T15:58:48.595Z,42.90
2019-05-15T16:01:14.936Z,44.50
2019-05-15T16:03:41.957Z,42.80
2019-05-15T16:06:08.923Z,44.70
2019-05-15T16:08:51.615Z,45.70
2019-05-15T16:11:07.960Z,44.30
2019-05-15T16:13:34.510Z,44.90
2019-05-15T16:16:01.319Z,46.50
2019-05-15T16:18:30.184Z,45.40
2019-05-15T16:20:58.004Z,46.50
2019-05-15T16:23:28.331Z,47.70
2019-05-15T16:26:19.819Z,46.40
2019-05-15T16:28:48.972Z,50.30
2019-05-15T16:31:18.594Z,47.40
2019-05-15T16:33:48.095Z,49.30
2019-05-15T16:36:18.259Z,49.40
2019-05-15T16:39:05.190Z,51.30
2019-05-15T16:41:44.497Z,51.30
2019-05-15T16:44:11.551Z,50.20
2019-05-15T16:46:39.270Z,50.20
2019-05-15T16:49:06.364Z,51.50
2019-05-15T16:51:33.383Z,49.40
2019-05-15T16:54:01.399Z,53.60
2019-05-15T16:56:52.568Z,54.80
2019-05-15T16:59:20.768Z,56.90
2019-05-15T17:01:48.933Z,57.20
2019-05-15T17:04:18.215Z,55.90
2019-05-15T17:06:44.910Z,55.90
2019-05-15T17:09:21.335Z,56.60
2019-05-15T17:11:40.731Z,56.70
2019-05-15T17:14:08.895Z,57.60
2019-05-15T17:16:38.682Z,57.50
2019-05-15T17:19:05.894Z,57.90
2019-05-15T17:21:32.911Z,58.10
2019-05-15T17:23:59.731Z,58.40
2019-05-15T17:26:28.785Z,58.30
2019-05-15T17:28:55.420Z,58.20
2019-05-15T17:31:22.451Z,58.60
2019-05-15T17:33:49.419Z,58.60
2019-05-15T17:36:18.448Z,58.50
2019-05-15T17:38:45.528Z,58.30
2019-05-15T17:41:12.517Z,58.60
2019-05-15T17:43:39.467Z,58.90
2019-05-15T17:46:08.698Z,58.50
2019-05-15T17:48:35.171Z,58.70
2019-05-15T17:51:03.271Z,58.70
2019-05-15T17:53:30.115Z,58.30
2019-05-15T17:55:58.612Z,58.20
2019-05-15T17:58:28.843Z,58.40
2019-05-15T18:00:55.607Z,59.80
2019-05-15T18:03:22.551Z,58.30
2019-05-15T18:05:49.486Z,58.10
2019-05-15T18:08:16.323Z,58.10
2019-05-15T18:10:43.259Z,58.20
2019-05-15T18:13:10.631Z,58.20
2019-05-15T18:15:38.536Z,58.10
2019-05-15T18:18:09.137Z,58.50
2019-05-15T18:20:34.589Z,58.10
2019-05-15T18:23:01.411Z,58.00
2019-05-15T18:25:28.416Z,58.60
2019-05-15T18:27:55.336Z,58.90
2019-05-15T18:30:22.218Z,58.50
2019-05-15T18:32:49.739Z,58.80
2019-05-15T18:35:18.629Z,58.90
2019-05-15T18:37:45.327Z,58.60
2019-05-15T18:40:12.206Z,58.90
2019-05-15T18:42:39.584Z,59.00
2019-05-15T18:45:06.714Z,59.50
2019-05-15T18:47:34.676Z,60.10
2019-05-15T18:50:05.755Z,60.30
2019-05-15T18:52:31.044Z,60.80
2019-05-15T18:54:58.705Z,60.70
2019-05-15T18:57:25.825Z,60.80
2019-05-15T19:00:08.762Z,60.60
2019-05-15T19:02:38.724Z,61.50
2019-05-15T19:05:04.738Z,61.40
2019-05-15T19:07:32.005Z,61.80
2019-05-15T19:09:58.910Z,62.30
2019-05-15T19:12:27.917Z,62.50
2019-05-15T19:14:58.465Z,62.80
2019-05-15T19:17:38.860Z,64.90
2019-05-15T19:20:08.461Z,63.30
2019-05-15T19:22:40.478Z,64.80
2019-05-15T19:25:05.163Z,62.90
2019-05-15T19:27:32.207Z,63.50
2019-05-15T19:29:59.259Z,63.10
2019-05-15T19:32:27.889Z,63.30
2019-05-15T19:34:55.051Z,64.10
2019-05-15T19:37:22.151Z,63.40
2019-05-15T19:39:49.233Z,63.20
2019-05-15T19:42:18.170Z,62.70
2019-05-15T19:44:45.365Z,63.60
2019-05-15T19:47:12.387Z,63.60
2019-05-15T19:49:39.349Z,63.20
2019-05-15T19:52:08.491Z,64.20
2019-05-15T19:54:37.490Z,63.30
2019-05-15T19:57:04.385Z,63.30
2019-05-15T19:59:31.629Z,63.20
2019-05-15T20:01:59.169Z,63.50
2019-05-15T20:04:28.165Z,62.90
2019-05-15T20:06:56.997Z,63.70
2019-05-15T20:09:24.097Z,63.10
2019-05-15T20:11:51.089Z,63.40
2019-05-15T20:14:19.825Z,63.90
2019-05-15T20:16:49.353Z,63.20
2019-05-15T20:19:18.168Z,64.30
2019-05-15T20:21:50.898Z,63.20
2019-05-15T20:24:24.083Z,64.00
2019-05-15T20:26:52.667Z,65.20
2019-05-15T20:29:23.691Z,58.40
2019-05-15T20:31:55.785Z,60.80
2019-05-15T20:34:23.634Z,62.60
2019-05-15T20:36:50.944Z,62.10
2019-05-15T21:29:26.348Z,55.40
2019-05-15T21:31:53.300Z,54.80
2019-05-15T21:34:36.633Z,54.10
2019-05-15T21:36:51.935Z,54.10
2019-05-15T21:39:17.618Z,53.30
2019-05-15T21:41:44.491Z,53.00
2019-05-15T21:44:11.424Z,54.10
2019-05-15T21:46:51.521Z,54.30
2019-05-15T21:49:19.158Z,53.90
2019-05-15T21:51:47.897Z,54.60
2019-05-15T21:54:15.036Z,54.40
2019-05-15T21:56:42.959Z,54.70
2019-05-15T21:59:09.895Z,54.60
2019-05-15T22:01:39.485Z,54.40
2019-05-15T22:04:05.610Z,54.30
2019-05-15T22:06:35.655Z,54.30
2019-05-15T22:09:05.127Z,54.70
2019-05-15T22:11:32.357Z,55.00
2019-05-15T22:13:59.180Z,53.60
2019-05-15T22:16:28.715Z,54.20
2019-05-15T22:18:55.463Z,54.20
2019-05-15T22:21:22.559Z,54.30
2019-05-15T22:23:49.394Z,54.10
2019-05-15T22:26:18.562Z,53.20
2019-05-15T22:28:45.104Z,52.80
2019-05-15T22:31:13.023Z,53.80
2019-05-15T22:33:40.960Z,53.00
2019-05-15T22:36:08.419Z,54.10
2019-05-15T22:38:35.643Z,53.10
2019-05-15T22:41:02.631Z,52.60
2019-05-15T22:43:29.577Z,53.90
2019-05-15T22:45:58.796Z,53.90
2019-05-15T22:48:28.289Z,54.00
2019-05-15T22:50:54.826Z,52.90
2019-05-15T22:53:21.691Z,53.10
2019-05-15T22:55:49.026Z,53.10
2019-05-15T22:58:16.139Z,53.00
2019-05-15T23:04:18.040Z,53.70
2019-05-15T23:06:44.891Z,53.80
2019-05-15T23:09:11.751Z,52.40
2019-05-15T23:11:39.259Z,53.60
2019-05-15T23:14:10.478Z,53.60
2019-05-15T23:16:39.160Z,52.50
2019-05-15T23:19:08.126Z,52.40
2019-05-15T23:21:37.859Z,53.00
2019-05-15T23:24:05.016Z,53.10
2019-05-15T23:26:31.839Z,52.10
2019-05-15T23:28:58.663Z,53.00
2019-05-15T23:31:27.705Z,53.20
2019-05-15T23:33:54.334Z,53.10
2019-05-15T23:36:21.263Z,53.10
2019-05-15T23:38:48.218Z,53.40
2019-05-15T23:41:15.171Z,52.20
2019-05-15T23:43:42.119Z,53.10
2019-05-15T23:46:08.959Z,52.10
2019-05-15T23:48:38.130Z,52.10
2019-05-15T23:51:04.625Z,52.10
2019-05-15T23:53:31.567Z,53.30
2019-05-15T23:55:59.985Z,53.10
2019-05-15T23:58:28.882Z,53.60
